createdAt,value
2023-01-01T00:00:34.226Z,118.32
2023-01-01T00:05:38.701Z,102.05
2023-01-01T00:10:40.031Z,106.35
2023-01-01T00:15:41.512Z,133.57
2023-01-01T00:20:42.899Z,124.68
2023-01-01T00:25:44.452Z,142.80
2023-01-01T00:30:45.840Z,169.60
2023-01-01T00:35:47.217Z,155.77
2023-01-01T00:40:48.613Z,151.15
2023-01-01T00:45:52.832Z,142.95
2023-01-01T00:50:54.480Z,143.70
2023-01-01T00:55:56.449Z,151.57
2023-01-01T01:00:57.992Z,135.85
2023-01-01T01:06:02.078Z,128.15
2023-01-01T01:11:08.665Z,116.38
2023-01-01T01:16:13.573Z,108.33
2023-01-01T01:21:16.902Z,100.63
2023-01-01T01:26:23.747Z,93.18
2023-01-01T01:31:28.693Z,86.28
2023-01-01T01:36:30.285Z,84.20
2023-01-01T01:41:31.619Z,73.03
2023-01-01T01:46:36.665Z,53.40
2023-01-01T01:51:40.589Z,36.03
2023-01-01T01:56:50.948Z,27.55
2023-01-01T02:01:52.970Z,29.83
2023-01-01T02:06:55.685Z,23.20
2023-01-01T02:11:58.752Z,20.98
2023-01-01T02:17:09.081Z,26.52
2023-01-01T02:22:48.787Z,32.28
2023-01-01T02:28:08.847Z,34.33
2023-01-01T02:33:16.223Z,34.22
2023-01-01T02:43:25.385Z,41.35
2023-01-01T02:48:40.477Z,39.13
2023-01-01T02:53:55.773Z,43.88
2023-01-01T02:59:33.518Z,43.70
2023-01-01T03:04:55.213Z,41.85
2023-01-01T03:10:07.473Z,46.25
2023-01-01T03:15:36.284Z,51.22
2023-01-01T03:20:42.357Z,40.55
2023-01-01T03:25:48.922Z,41.88
2023-01-01T03:30:52.563Z,46.37
2023-01-01T03:36:05.572Z,34.10
2023-01-01T03:41:35.635Z,35.95
2023-01-01T03:46:37.668Z,34.40
2023-01-01T03:52:15.322Z,33.63
2023-01-01T03:57:47.815Z,28.38
2023-01-01T04:02:52.070Z,27.73
2023-01-01T04:07:54.255Z,31.42
2023-01-01T04:12:57.579Z,29.80
2023-01-01T04:17:59.120Z,27.35
2023-01-01T04:23:01.673Z,28.45
2023-01-01T04:28:05.865Z,33.05
2023-01-01T04:33:07.208Z,26.88
2023-01-01T04:38:13.126Z,26.48
2023-01-01T04:43:14.442Z,24.00
2023-01-01T04:48:15.815Z,26.73
2023-01-01T04:53:17.156Z,23.58
2023-01-01T04:58:18.575Z,25.27
2023-01-01T05:03:19.907Z,24.50
2023-01-01T05:08:21.224Z,23.52
2023-01-01T05:13:22.588Z,25.70
2023-01-01T05:18:23.946Z,30.17
2023-01-01T05:23:25.308Z,20.70
2023-01-01T05:28:27.153Z,22.80
2023-01-01T05:33:28.464Z,21.23
2023-01-01T05:38:29.827Z,22.95
2023-01-01T05:43:31.152Z,20.77
2023-01-01T05:48:32.876Z,20.55
2023-01-01T05:53:35.072Z,20.60
2023-01-01T05:58:36.782Z,26.75
2023-01-01T06:03:38.125Z,19.70
2023-01-01T06:08:40.321Z,18.33
2023-01-01T06:13:41.635Z,21.50
2023-01-01T06:18:43.053Z,21.67
2023-01-01T06:23:44.734Z,26.60
2023-01-01T06:28:46.745Z,19.00
2023-01-01T06:33:48.984Z,23.10
2023-01-01T06:38:52.926Z,22.10
2023-01-01T06:43:56.068Z,24.77
2023-01-01T06:49:00.229Z,27.50
2023-01-01T06:54:03.742Z,25.23
2023-01-01T06:59:05.973Z,24.98
2023-01-01T07:04:11.061Z,29.92
2023-01-01T07:09:12.501Z,26.58
2023-01-01T07:14:13.917Z,22.00
2023-01-01T07:19:15.469Z,22.25
2023-01-01T07:24:17.187Z,23.10
2023-01-01T07:29:18.605Z,25.98
2023-01-01T07:34:20.084Z,23.77
2023-01-01T07:39:21.453Z,23.92
2023-01-01T07:44:22.806Z,24.08
2023-01-01T07:49:24.176Z,24.00
2023-01-01T07:54:25.569Z,23.23
2023-01-01T07:59:26.899Z,23.15
2023-01-01T08:04:28.261Z,26.85
2023-01-01T08:09:29.579Z,23.95
2023-01-01T08:14:30.931Z,19.45
2023-01-01T08:19:32.275Z,21.92
2023-01-01T08:24:33.618Z,22.75
2023-01-01T08:29:34.937Z,23.08
2023-01-01T08:34:36.400Z,22.55
2023-01-01T08:39:37.715Z,21.00
2023-01-01T08:44:39.033Z,18.08
2023-01-01T08:49:40.421Z,23.55
2023-01-01T08:54:41.848Z,15.35
2023-01-01T08:59:43.298Z,13.18
2023-01-01T09:04:44.665Z,10.20
2023-01-01T09:09:46.084Z,9.60
2023-01-01T09:14:48.018Z,6.93
2023-01-01T09:19:49.336Z,6.40
2023-01-01T09:24:50.672Z,6.15
2023-01-01T09:29:52.022Z,6.05
2023-01-01T09:34:53.412Z,8.85
2023-01-01T09:39:54.769Z,6.70
2023-01-01T09:45:20.986Z,4.70
2023-01-01T09:50:27.939Z,6.22
2023-01-01T09:56:05.163Z,9.80
2023-01-01T10:01:25.160Z,7.40
2023-01-01T10:06:33.655Z,5.53
2023-01-01T10:11:59.447Z,4.07
2023-01-01T10:17:06.497Z,7.03
2023-01-01T10:22:15.252Z,4.43
2023-01-01T10:27:39.961Z,6.43
2023-01-01T10:32:43.295Z,7.38
2023-01-01T10:37:45.039Z,5.43
2023-01-01T10:42:50.027Z,5.45
2023-01-01T10:48:15.067Z,4.05
2023-01-01T10:53:52.872Z,6.32
2023-01-01T10:58:56.525Z,7.07
2023-01-01T11:04:21.101Z,6.78
2023-01-01T11:09:26.539Z,7.78
2023-01-01T11:14:33.617Z,7.00
2023-01-01T11:19:37.516Z,8.98
2023-01-01T11:24:39.342Z,4.00
2023-01-01T11:29:40.735Z,6.10
2023-01-01T11:34:44.003Z,3.80
2023-01-01T11:39:48.920Z,9.90
2023-01-01T11:44:58.217Z,10.23
2023-01-01T11:50:08.904Z,5.15
2023-01-01T11:55:42.272Z,6.63
2023-01-01T12:00:44.115Z,5.68
2023-01-01T12:05:59.933Z,8.25
2023-01-01T12:11:39.553Z,9.20
2023-01-01T12:16:59.807Z,6.22
2023-01-01T12:22:01.229Z,6.97
2023-01-01T12:27:16.335Z,5.95
2023-01-01T12:32:49.857Z,3.95
2023-01-01T12:38:23.286Z,9.45
2023-01-01T12:43:43.027Z,5.22
2023-01-01T12:49:05.975Z,6.40
2023-01-01T12:54:39.596Z,3.38
2023-01-01T12:59:47.893Z,4.25
2023-01-01T13:04:53.867Z,4.25
2023-01-01T13:09:56.413Z,5.97
2023-01-01T13:14:57.767Z,6.40
2023-01-01T13:20:16.207Z,7.55
2023-01-01T13:25:17.564Z,9.25
2023-01-01T13:30:37.304Z,6.45
2023-01-01T13:35:38.944Z,8.88
2023-01-01T13:40:50.903Z,5.30
2023-01-01T13:46:13.088Z,6.13
2023-01-01T13:52:07.610Z,7.15
2023-01-01T13:57:28.082Z,3.30
2023-01-01T14:02:36.221Z,9.00
2023-01-01T14:07:52.696Z,8.75
2023-01-01T14:12:57.950Z,6.97
2023-01-01T14:18:02.723Z,9.40
2023-01-01T14:23:11.807Z,8.02
2023-01-01T14:28:22.170Z,6.65
2023-01-01T14:33:29.422Z,6.68
2023-01-01T14:43:37.038Z,6.25
2023-01-01T14:48:43.552Z,8.52
2023-01-01T14:53:48.094Z,4.33
2023-01-01T14:58:49.460Z,4.38
2023-01-01T15:04:05.392Z,6.18
2023-01-01T15:09:06.830Z,7.63
2023-01-01T15:14:31.020Z,3.50
2023-01-01T15:19:32.591Z,5.15
2023-01-01T15:24:37.390Z,6.45
2023-01-01T15:29:47.336Z,4.70
2023-01-01T15:34:54.709Z,8.07
2023-01-01T15:39:59.316Z,8.27
2023-01-01T15:45:24.969Z,5.55
2023-01-01T15:50:35.616Z,7.38
2023-01-01T15:55:44.123Z,6.30
2023-01-01T16:00:58.491Z,8.65
2023-01-01T16:06:00.550Z,6.22
2023-01-01T16:11:01.931Z,7.05
2023-01-01T16:16:04.007Z,10.40
2023-01-01T16:21:05.793Z,13.85
2023-01-01T16:26:07.272Z,17.20
2023-01-01T16:31:14.706Z,10.15
2023-01-01T16:36:16.139Z,8.45
2023-01-01T16:41:18.172Z,13.18
2023-01-01T16:46:19.529Z,9.68
2023-01-01T16:51:24.138Z,10.90
2023-01-01T16:56:25.564Z,9.73
2023-01-01T17:01:27.196Z,12.85
2023-01-01T17:06:28.781Z,9.25
2023-01-01T17:11:30.169Z,9.63
2023-01-01T17:16:38.762Z,10.32
2023-01-01T17:21:41.032Z,10.18
2023-01-01T17:26:42.451Z,9.05
2023-01-01T17:31:44.088Z,9.82
2023-01-01T17:36:45.916Z,6.82
2023-01-01T17:41:47.345Z,8.80
2023-01-01T17:46:48.854Z,7.07
2023-01-01T17:51:50.385Z,14.77
2023-01-01T17:56:53.079Z,15.20
2023-01-01T18:01:54.526Z,18.08
2023-01-01T18:07:06.012Z,26.02
2023-01-01T18:12:07.692Z,31.65
2023-01-01T18:17:09.182Z,22.17
2023-01-01T18:22:10.740Z,21.55
2023-01-01T18:27:12.158Z,20.63
2023-01-01T18:32:13.533Z,24.42
2023-01-01T18:37:14.916Z,22.35
2023-01-01T18:42:39.635Z,25.58
2023-01-01T18:47:41.158Z,24.25
2023-01-01T18:52:42.576Z,24.45
2023-01-01T18:57:49.417Z,35.33
2023-01-01T19:03:28.247Z,29.00
2023-01-01T19:08:30.151Z,33.35
2023-01-01T19:13:41.673Z,33.63
2023-01-01T19:18:45.391Z,23.63
2023-01-01T19:23:55.316Z,23.88
2023-01-01T19:29:02.873Z,15.93
2023-01-01T19:39:07.252Z,19.25
2023-01-01T19:44:10.492Z,17.08
2023-01-01T19:49:12.776Z,12.93
2023-01-01T19:54:14.413Z,29.98
2023-01-01T19:59:15.914Z,12.50
2023-01-01T20:04:17.405Z,19.42
2023-01-01T20:09:18.926Z,19.38
2023-01-01T20:14:20.272Z,19.73
2023-01-01T20:19:21.612Z,21.55
2023-01-01T20:24:23.010Z,19.70
2023-01-01T20:29:24.452Z,21.98
2023-01-01T20:34:26.746Z,22.75
2023-01-01T20:39:28.571Z,15.52
2023-01-01T20:44:30.235Z,19.15
2023-01-01T20:49:31.645Z,18.27
2023-01-01T20:54:33.160Z,17.15
2023-01-01T20:59:36.561Z,18.85
2023-01-01T21:04:40.318Z,18.42
2023-01-01T21:09:42.049Z,19.30
2023-01-01T21:14:43.418Z,20.92
2023-01-01T21:19:44.960Z,20.40
2023-01-01T21:24:49.802Z,26.08
2023-01-01T21:29:57.400Z,19.73
2023-01-01T21:34:58.824Z,28.48
2023-01-01T21:40:00.290Z,19.23
2023-01-01T21:45:02.019Z,25.23
2023-01-01T21:50:18.941Z,22.90
2023-01-01T21:55:50.145Z,26.07
2023-01-01T22:00:51.548Z,25.67
2023-01-01T22:05:58.975Z,21.10
2023-01-01T22:11:01.347Z,20.40
2023-01-01T22:16:03.091Z,23.77
2023-01-01T22:21:04.656Z,20.45
2023-01-01T22:26:17.294Z,20.90
2023-01-01T22:31:29.326Z,21.38
2023-01-01T22:36:34.696Z,23.02
2023-01-01T22:41:36.035Z,22.63
2023-01-01T22:46:40.076Z,19.13
2023-01-01T22:51:43.637Z,21.52
2023-01-01T22:56:44.973Z,20.15
2023-01-01T23:01:46.643Z,23.15
2023-01-01T23:06:48.056Z,23.15
2023-01-01T23:11:49.525Z,21.73
2023-01-01T23:16:50.919Z,15.82
2023-01-01T23:21:52.401Z,18.75
2023-01-01T23:26:53.804Z,14.65
2023-01-01T23:31:55.251Z,25.55
2023-01-01T23:36:57.726Z,28.98
2023-01-01T23:41:59.172Z,25.05
2023-01-01T23:47:00.966Z,23.05
2023-01-01T23:52:03.362Z,25.05
2023-01-01T23:57:05.363Z,23.02
